Flight Track Log - Related Links

Times and Time Zones

All times are in EST time to prevent confusion due to time zone crossing. See the N1944E flight status page for this flight to view local times or setup timezone preferences in your user account.

Time Position Orientation Groundspeed Altitude Reporting Facility
EST Latitude Longitude Course Direction KTS MPH feet Rate Location/Type
Fri 06:23:43 PM 44.5319 -108.9864 235° Southwest 135 155 8,400  Level Salt Center
Fri 06:24:44 PM 44.5422 -109.0136 298° West 137 158 9,500 1,122 Climbing Salt Center
Fri 06:25:46 PM 44.5181 -109.0533 230° Southwest 136 157 10,700 1,220 Climbing Salt Center
Fri 06:26:47 PM 44.5003 -109.0953 239° Southwest 132 152 12,000 1,317 Climbing Salt Center
Fri 06:27:49 PM 44.4719 -109.1414 229° Southwest 129 148 13,400 968 Climbing Salt Center
Fri 06:28:51 PM 44.4508 -109.1858 236° Southwest 135 155 14,000 829 Climbing Salt Center
Fri 06:29:00 PM 44.3523 -109.3468 235° Southwest  Level Estimated
Fri 06:29:52 PM 44.4292 -109.2275 234° Southwest 134 154 15,100  Level Salt Center
Fri 06:30:54 PM 44.4008 -109.2719 228° Southwest 145 167 16,100 488 Climbing Salt Center
Fri 06:31:55 PM 44.3750 -109.3269 237° Southwest 163 188 16,100  Level Salt Center
Fri 06:32:57 PM 44.3472 -109.3844 236° Southwest 174 200 16,100  Level Salt Center
Fri 06:33:59 PM 44.3131 -109.4464 232° Southwest 192 221 16,100  Level Salt Center
Fri 06:35:00 PM 44.2761 -109.5128 232° Southwest 196 226 16,100 -146 Level Salt Center
Fri 06:36:02 PM 44.2428 -109.5731 232° Southwest 182 209 15,800 -97 Descending Salt Center
Fri 06:37:04 PM 44.2203 -109.6208 237° Southwest 164 189 15,900 49 Climbing Salt Center
Fri 06:38:05 PM 44.1994 -109.6678 238° Southwest 153 176 15,900 -49 Level Salt Center
Fri 06:39:07 PM 44.1667 -109.7297 234° Southwest 169 194 15,800  Descending Salt Center
Fri 06:40:08 PM 44.1356 -109.7808 230° Southwest 177 204 15,900 49 Climbing Salt Center
Fri 06:41:10 PM 44.1064 -109.8364 234° Southwest 166 191 15,900  Level Salt Center
Fri 06:42:12 PM 44.0792 -109.8856 232° Southwest 166 191 15,900  Level Salt Center
Fri 06:43:13 PM 44.0364 -109.9092 202° Southwest 194 223 15,900  Level Salt Center
Fri 06:44:15 PM 43.9642 -109.8869 168° South 232 267 15,900  Level Salt Center
Fri 06:45:17 PM 43.9047 -109.8669 166° South 233 268 15,900  Level Salt Center
Fri 06:46:18 PM 43.8400 -109.8464 167° South 221 254 15,900  Level Salt Center
Fri 06:47:20 PM 43.7917 -109.8600 191° South 174 200 15,900  Level Salt Center
Fri 06:48:22 PM 43.7517 -109.8964 213° Southwest 170 196 15,900  Level Salt Center
Fri 06:49:23 PM 43.7111 -109.9333 213° Southwest 175 201 15,900  Level Salt Center
Fri 06:50:25 PM 43.7061 -109.9636 257° West 91 105 15,900  Level Salt Center
Fri 06:51:26 PM 43.7100 -109.9939 280° West 81 93 15,900  Level Salt Center
Fri 06:52:28 PM 43.7203 -110.0169 302° West 73 84 15,900 -439 Level Salt Center
Fri 06:53:29 PM 43.7386 -110.0544 304° West 99 114 15,000 -683 Descending Salt Center
Fri 06:54:31 PM 43.7539 -110.0928 299° West 123 142 14,500 -532 Descending Salt Center
Fri 06:55:33 PM 43.7694 -110.1411 294° West 130 150 13,900 -341 Descending Salt Center
Fri 06:56:34 PM 43.7850 -110.1919 293° West 130 150 13,800 98 Descending Salt Center
Fri 06:57:36 PM 43.7978 -110.2294 295° West 113 130 14,100 -98 Climbing Salt Center
Fri 06:58:37 PM 43.8128 -110.2736 295° West 115 132 13,600 -537 Descending Salt Center
Fri 06:59:39 PM 43.8272 -110.3242 292° West 133 153 13,000 -726 Descending Salt Center
Fri 07:00:41 PM 43.8289 -110.3839 272° West 136 157 12,100 -616 Descending Salt Center
Fri 07:02:44 PM 43.8206 -110.4994 264° West 152 175 11,100 -489 Descending Salt Center
Fri 07:03:45 PM 43.8086 -110.5544 253° West 136 157 10,600 -683 Descending Salt Center
Fri 07:04:47 PM 43.7892 -110.6114 245° Southwest 151 174 9,700 -919 Descending Salt Center
Fri 07:05:49 PM 43.7583 -110.6578 227° Southwest 162 186 8,700 -537 Descending Salt Center
Fri 07:06:50 PM 43.7256 -110.6839 210° Southwest 146 168 8,600 -293 Descending Salt Center
Fri 07:07:52 PM 43.6944 -110.6964 196° South 127 146 8,100 -488 Descending Salt Center
Fri 07:08:53 PM 43.6644 -110.7103 199° South 117 135 7,600 -537 Descending Salt Center
Fri 07:09:55 PM 43.6347 -110.7242 199° South 115 132 7,000 -537 Descending Salt Center
Fri 07:10:56 PM 43.6097 -110.7367 200° South 105 121 6,500 -492 Descending Salt Center

Login

Don't have an account? Register now (free) for customized features, flight alerts, and more!